AirNav   Pilot Hours Calculator
 
 925 users online  

05PA Peco Mob Heliport
Philadelphia, Pennsylvania, USA

GOING TO PHILADELPHIA?


FAA INFORMATION EFFECTIVE 02 JANUARY 2020

Location

FAA Identifier: 05PA
Lat/Long: 39-57-17.4050N 075-10-41.6420W
39-57.290083N 075-10.694033W
39.9548347,-75.1782339
(estimated)
Elevation: 110 ft. / 34 m (estimated)
Variation: 11W (1985)
Time zone: UTC -5 (UTC -4 during Daylight Saving Time)
Zip code: 19103

Heliport Operations

Heliport use: Private use. Permission required prior to landing
Activation date: 04/1970
Control tower: no
ARTCC: NEW YORK CENTER
FSS: WILLIAMSPORT FLIGHT SERVICE STATION
Attendance: UNATNDD
Wind indicator: yes
Segmented circle: no
Lights: FOR PERI LGTS CALL 215-841-5399.

Heliport Communications

UNICOM: 123.05
WX ASOS at PHL (6 nm SW): PHONE 215-492-9617
WX ASOS at PNE (11 nm NE): 121.15 (215-677-0146)
WX AWOS-3 at LOM (12 nm N): 118.925 (215-646-1068)
WX ASOS at VAY (15 nm E): 119.325 (609-267-1176)
WX AWOS-3T at OQN (19 nm W): 121.4 ((610) 692-6190)

Nearby radio navigation aids

VOR radial/distance  VOR name  Freq  Var
OODr027/20.0WOODSTOWN VORTAC112.8010W
ARDr225/21.8YARDLEY VOR/DME108.2010W
MXEr093/22.8MODENA VORTAC113.2009W
PTWr141/23.8POTTSTOWN VORTAC116.5009W
DQOr060/25.8DUPONT VORTAC114.0010W
VCNr349/26.9CEDAR LAKE VOR/DME115.2010W
GXUr275/26.9MC GUIRE VORTAC110.6012W
RBVr255/34.7ROBBINSVILLE VORTAC113.8010W
CYNr293/35.3COYLE VORTAC113.4010W

 
NDB name  Hdg/Dist  Freq  Var  ID
AMBLER166/11.427512WING .. -. --.
RAINBOW007/32.336311WRNB .-. -. -...
LAKEHURST273/39.139611WNEL -. . .-..

Heliport Services

Airframe service: NONE
Powerplant service: NONE

Runway Information

Helipad H1

Dimensions: 70 x 70 ft. / 21 x 21 m
Surface: asphalt, in fair condition
ROOFTOP HELIPORT.
Runway edge lights: PERI
Latitude: 39-57.290083N
Longitude: 075-10.694033W
Elevation: 110.0 ft.
Traffic pattern: leftleft
Markings: none, in fair condition

Heliport Ownership and Management from official FAA records

Ownership: Privately-owned
OWNER DESIRES NOT TO BE PUB OR CHARTED.
Owner: PHILADELPHIA ELEC CO
2301 MARKET ST (N3-3)
PHILADELPHIA, PA 19101
Phone (215) 841-5381
Manager: MICHAEL FERRELL
2301 MARKET ST (N3-4
PHILADELPHIA, PA 19101
Phone (215) 841-5399

Additional Remarks

A52-H1 20 STORY BLDG ON SW SIDE; CLEAR APCHS FM NW THRU S.
HELI PVT USE ONLY.
FOR CD CTC PHILADELPHIA APCH AT 800-354-9884.

Instrument Procedures

There are no published instrument procedures at 05PA.

Some nearby airports with instrument procedures:

KPHL - Philadelphia International Airport (6 nm SW)
KPNE - Northeast Philadelphia Airport (11 nm NE)
KLOM - Wings Field Airport (12 nm N)
19N - Camden County Airport (15 nm SE)
KVAY - South Jersey Regional Airport (15 nm E)
17N - Cross Keys Airport (16 nm SE)
7N7 - Spitfire Aerodrome (17 nm SW)
N14 - Flying W Airport (17 nm E)
KOQN - Brandywine Regional Airport (19 nm W)
N10 - Perkiomen Valley Airport (19 nm NW)
 
Loc | Ops | Rwys | IFR | FBO | Links
Com | Nav | Svcs | Stats | Notes
Area around 05PA (Peco Mob Heliport)
 
Road maps at: MapQuest Bing Google
 
Aerial photo
No photo
 
Sectional chart

 
Airport distance calculator
Flying to Peco Mob Heliport? Find the distance to fly.

From to 05PA

Sunrise and sunset
Times for 19-Jan-2020
 Local
(UTC-5)
 Zulu
(UTC)
Morning civil twilight06:5011:50
Sunrise07:2012:20
Sunset17:0322:03
Evening civil twilight17:3322:33

Current date and time
Zulu (UTC)  19-Jan-2020 12:11:15
Local (UTC-5)  19-Jan-2020 07:11:15
 
METAR
KPHL 
6nm SW 
191154Z 22008KT 10SM FEW015 SCT080 BKN250 03/01 A2974 RMK AO2 SLP072 60003 70028 T00280006 10044 20022 53008 $
KPNE 
11nm NE 
191202Z 25005KT 9SM FEW008 03/01 A2975 RMK AO2 T00280006
KLOM 
12nm N 
191155Z AUTO 31005KT 5SM BR BKN004 01/00 A2973 RMK AO2 T00060004 10021 21011 70020
KVAY 
16nm E 
ASOS 119.325 609-267-1176
191154Z AUTO 00000KT 5SM BR FEW075 02/01 A2975 RMK AO2 SLP073 60002 7//// T00220011 10050 20022 53012 $
KOQN 
19nm W 
191155Z AUTO 29008G15KT 248V308 10SM CLR 02/01 A2972 RMK AO2
TAF
KPHL 
6nm SW 
190906Z 1909/2012 26010KT P6SM BKN012 OVC060 TEMPO 1909/1911 SCT012 BKN060 FM191100 27010KT P6SM BKN045 FM191400 29016G28KT P6SM SCT045 FM192300 31012G20KT P6SM SCT045 TEMPO 2004/2008 BKN045
KPNE 
11nm NE 
190908Z 1909/2006 28008KT P6SM OVC008 TEMPO 1910/1911 SCT008 BKN060 FM191100 28010KT P6SM BKN045 FM191400 29014G26KT P6SM SCT045 FM192300 31010G18KT P6SM SCT045 TEMPO 2004/2006 BKN045
NOTAMs
Click for the latest NOTAMs
NOTAMs are issued by the DoD/FAA and will open in a separate window not controlled by AirNav.

 

 
 

Would you like to see your business listed on this page?

 If your business provides an interesting product or service to pilots, flight crews, aircraft, or users of the Peco Mob Heliport, you should consider listing it here.  To start the listing process, click on the button below
 
Add a business
 

Other Pages about Peco Mob Heliport

Update a link
 
Copyright © AirNav, LLC. All rights reserved. Privacy Policy  Contact